Observations for NAPLES CAPODICHINO, Italy (LIRN)

LIRN 221250Z 25011KT 9999 -RA SCT020 BKN040 10/07 Q1003 RERA NOSIG  
LIRN 221220Z 25012KT 6000 RA SCT015 BKN030 10/08 Q1003 NOSIG
LIRN 221150Z 26014KT 9000 SCT025 BKN040 11/08 Q1003 NOSIG   
LIRN 221120Z 26015KT 8000 SCT015 BKN035 11/08 Q1003 NOSIG   
LIRN 221050Z VRB02KT 8000 FEW015 SCT030 BKN040 11/10 Q1003 RERA NOSIG   
LIRN 221020Z 08005KT 8000 RA FEW010 SCT020 BKN040 11/10 Q1003 NOSIG 
LIRN 220950Z 03005KT 350V060 5000 BR SCT015 BKN025 10/09 Q1003 RERA NOSIG   
LIRN 220920Z 16005KT 100V200 3000 RA SCT015 BKN025 10/09 Q1003 NOSIG
LIRN 220850Z 18005KT 130V250 3000 RA SCT015 BKN025 10/09 Q1003 TEMPO TS 
LIRN 220820Z VRB01KT 5000 RA SCT015 BKN025 11/09 Q1003 TEMPO TS 
LIRN 220750Z 08003KT 040V120 8000 SCT020 BKN040 10/08 Q1003 TEMPO TSRA  
LIRN 220720Z 06004KT 9000 SCT020 BKN040 09/08 Q1003 NOSIG   
LIRN 220650Z 07004KT 9000 SCT020 BKN040 09/08 Q1003 NOSIG   
LIRN 220620Z 05005KT 030V090 9000 RA FEW030 BKN040 09/08 Q1003 NOSIG
LIRN 220550Z 05004KT 9999 BKN040 09/08 Q1004 NOSIG  
LIRN 220520Z 04004KT 9999 -RA BKN040 09/08 Q1004 RERA NOSIG 
LIRN 220450Z VRB02KT 8000 RA BKN035 09/09 Q1004 NOSIG   
LIRN 220420Z VRB01KT 8000 RA BKN025 09/08 Q1005 NOSIG   
LIRN 220350Z 05005KT 020V090 8000 RA BKN025 09/08 Q1004 NOSIG   
LIRN 220320Z 05004KT 8000 -RA BKN050 09/08 Q1005 NOSIG  
LIRN 220250Z 03003KT 9999 BKN030 09/08 Q1005 NOSIG  
LIRN 220220Z VRB04KT 9999 -RA BKN025 09/08 Q1006 NOSIG  
LIRN 220150Z 07006KT 9999 -RA BKN025 09/08 Q1006 NOSIG  
LIRN 220120Z 09003KT 050V120 9999 -RA BKN030 09/08 Q1006 NOSIG  
LIRN 220050Z 08004KT 050V110 9999 -RA BKN025 09/08 Q1007 NOSIG  
LIRN 220020Z 10006KT 050V120 9999 BKN025 09/07 Q1007 NOSIG  
LIRN 212350Z 07006KT 050V110 9999 BKN040 09/07 Q1007 NOSIG  
LIRN 212320Z 07006KT 9999 -RA BKN040 09/07 Q1008 NOSIG  
LIRN 212250Z 08003KT 030V150 9999 -RA BKN035 09/07 Q1008 NOSIG  
LIRN 212220Z 04006KT 010V110 8000 -RA BKN030 09/07 Q1008 NOSIG  
LIRN 212150Z 05008KT 6000 -RA SCT020 BKN040 09/07 Q1008 NOSIG   
LIRN 212120Z 06004KT 5000 RA BR SCT020 BKN040 09/07 Q1008 NOSIG 
LIRN 212050Z 34003KT 300V030 5000 RA BR SCT020 BKN040 09/07 Q1009 NOSIG 
LIRN 212020Z 04003KT 290V090 6000 -RA SCT020 BKN040 09/07 Q1009 NOSIG   
LIRN 211950Z VRB06KT 7000 -DZ SCT020 BKN045 09/07 Q1008 NOSIG   
LIRN 211920Z 34004KT 310V020 8000 -DZ SCT020 BKN045 09/07 Q1009 NOSIG   
LIRN 211850Z 36003KT 270V030 8000 SCT020 BKN040 08/07 Q1009 NOSIG   
LIRN 211820Z 03004KT 230V040 8000 SCT020 BKN050 09/07 Q1009 NOSIG   
LIRN 211750Z 02006KT 300V050 8000 -RA FEW020 BKN040 09/08 Q1009 NOSIG   
LIRN 211720Z 03008KT 300V050 8000 FEW020 BKN040 09/07 Q1009 NOSIG   
LIRN 211650Z 36006KT 300V020 8000 -RA SCT020 BKN040 09/08 Q1010 NOSIG   
LIRN 211620Z 05004KT 350V060 7000 RA SCT020 BKN040 09/08 Q1010 NOSIG
LIRN 211550Z VRB02KT 6000 -RA SCT020 BKN040 09/08 Q1010 NOSIG   
LIRN 211520Z 22003KT 190V250 6000 -RA SCT020 BKN040 09/08 Q1010 NOSIG   
LIRN 211450Z 13003KT 070V190 7000 -RA FEW020 BKN040 10/08 Q1010 NOSIG   
LIRN 211420Z 05005KT 7000 FEW020 BKN050 10/08 Q1010 NOSIG   
LIRN 211350Z 04006KT 9999 FEW020 BKN055 10/08 Q1011 NOSIG   
LIRN 211320Z 03007KT 9999 -RA FEW020 BKN045 10/08 Q1011 NOSIG   
LIRN 211250Z 03005KT 8000 -RA FEW020 BKN045 10/08 Q1011 NOSIG   
LIRN 211220Z 36003KT 250V060 8000 -RA FEW020 BKN040 10/07 Q1011 NOSIG